sensor_id;sensor_type;location;lat;lon;timestamp;pressure;altitude;pressure_sealevel;temperature;humidity
32131;BME280;18639;50.716;7.086;2024-02-16T00:01:31;99936.09;;;11.13;100.00
32131;BME280;18639;50.716;7.086;2024-02-16T00:03:57;99940.44;;;11.13;100.00
32131;BME280;18639;50.716;7.086;2024-02-16T00:06:22;99918.78;;;11.03;100.00
32131;BME280;18639;50.716;7.086;2024-02-16T00:08:47;99949.31;;;11.21;100.00
32131;BME280;18639;50.716;7.086;2024-02-16T00:11:13;99939.75;;;11.11;100.00
32131;BME280;18639;50.716;7.086;2024-02-16T00:13:38;99938.19;;;11.08;100.00
32131;BME280;18639;50.716;7.086;2024-02-16T00:16:03;99949.50;;;11.18;100.00
32131;BME280;18639;50.716;7.086;2024-02-16T00:18:29;99938.69;;;11.13;100.00
32131;BME280;18639;50.716;7.086;2024-02-16T00:20:54;99923.75;;;11.06;100.00
32131;BME280;18639;50.716;7.086;2024-02-16T00:23:19;99947.66;;;11.20;100.00
32131;BME280;18639;50.716;7.086;2024-02-16T00:25:47;99939.50;;;11.14;100.00
32131;BME280;18639;50.716;7.086;2024-02-16T00:28:13;99953.75;;;11.19;100.00
32131;BME280;18639;50.716;7.086;2024-02-16T00:30:38;99913.13;;;10.97;100.00
32131;BME280;18639;50.716;7.086;2024-02-16T00:33:04;99959.19;;;11.27;100.00
32131;BME280;18639;50.716;7.086;2024-02-16T00:35:29;99878.44;;;10.89;100.00
32131;BME280;18639;50.716;7.086;2024-02-16T00:37:58;99923.94;;;11.26;100.00
32131;BME280;18639;50.716;7.086;2024-02-16T00:40:24;99947.47;;;11.46;100.00
32131;BME280;18639;50.716;7.086;2024-02-16T00:42:49;99920.88;;;11.32;100.00
32131;BME280;18639;50.716;7.086;2024-02-16T00:45:14;99892.13;;;11.13;100.00
32131;BME280;18639;50.716;7.086;2024-02-16T00:47:40;99899.00;;;11.25;100.00
32131;BME280;18639;50.716;7.086;2024-02-16T00:50:05;99934.09;;;11.63;100.00
32131;BME280;18639;50.716;7.086;2024-02-16T00:52:33;99865.75;;;11.32;100.00
32131;BME280;18639;50.716;7.086;2024-02-16T00:54:59;99928.84;;;11.75;100.00
32131;BME280;18639;50.716;7.086;2024-02-16T00:57:24;99923.91;;;11.84;100.00
32131;BME280;18639;50.716;7.086;2024-02-16T00:59:49;99935.09;;;11.95;100.00
32131;BME280;18639;50.716;7.086;2024-02-16T01:02:14;99921.91;;;11.87;100.00
32131;BME280;18639;50.716;7.086;2024-02-16T01:04:42;99934.63;;;12.01;100.00
32131;BME280;18639;50.716;7.086;2024-02-16T01:07:07;99922.84;;;11.97;100.00
32131;BME280;18639;50.716;7.086;2024-02-16T01:09:32;99886.28;;;11.79;100.00
32131;BME280;18639;50.716;7.086;2024-02-16T01:11:57;99936.03;;;12.16;100.00
32131;BME280;18639;50.716;7.086;2024-02-16T01:14:23;99884.00;;;11.86;100.00
32131;BME280;18639;50.716;7.086;2024-02-16T01:16:48;99930.72;;;12.18;100.00
32131;BME280;18639;50.716;7.086;2024-02-16T01:19:13;99924.75;;;12.17;100.00
32131;BME280;18639;50.716;7.086;2024-02-16T01:21:39;99895.19;;;11.98;100.00
32131;BME280;18639;50.716;7.086;2024-02-16T01:24:05;99901.91;;;12.00;100.00
32131;BME280;18639;50.716;7.086;2024-02-16T01:26:31;99903.31;;;12.04;100.00
32131;BME280;18639;50.716;7.086;2024-02-16T01:28:57;99903.22;;;11.95;100.00
32131;BME280;18639;50.716;7.086;2024-02-16T01:31:23;99939.78;;;12.23;100.00
32131;BME280;18639;50.716;7.086;2024-02-16T01:33:48;99943.56;;;12.19;100.00
32131;BME280;18639;50.716;7.086;2024-02-16T01:36:14;99877.06;;;11.75;100.00
32131;BME280;18639;50.716;7.086;2024-02-16T01:38:39;99938.28;;;12.10;100.00
32131;BME280;18639;50.716;7.086;2024-02-16T01:41:04;99924.50;;;11.98;100.00
32131;BME280;18639;50.716;7.086;2024-02-16T01:43:30;99900.03;;;11.80;100.00
32131;BME280;18639;50.716;7.086;2024-02-16T01:45:56;99921.81;;;11.89;100.00
32131;BME280;18639;50.716;7.086;2024-02-16T01:48:24;99907.31;;;11.86;100.00
32131;BME280;18639;50.716;7.086;2024-02-16T01:50:49;99910.03;;;11.85;100.00
32131;BME280;18639;50.716;7.086;2024-02-16T01:53:16;99907.66;;;11.81;100.00
32131;BME280;18639;50.716;7.086;2024-02-16T01:55:47;99879.97;;;11.71;100.00
32131;BME280;18639;50.716;7.086;2024-02-16T01:58:13;99893.44;;;11.76;100.00
32131;BME280;18639;50.716;7.086;2024-02-16T02:00:39;99911.34;;;11.79;100.00
32131;BME280;18639;50.716;7.086;2024-02-16T02:03:06;99910.72;;;11.87;100.00
32131;BME280;18639;50.716;7.086;2024-02-16T02:05:32;99868.47;;;11.64;100.00
32131;BME280;18639;50.716;7.086;2024-02-16T02:07:58;99892.59;;;11.75;100.00
32131;BME280;18639;50.716;7.086;2024-02-16T02:10:23;99907.81;;;11.91;100.00
32131;BME280;18639;50.716;7.086;2024-02-16T02:12:48;99893.44;;;11.98;100.00
32131;BME280;18639;50.716;7.086;2024-02-16T02:15:13;99903.31;;;12.04;100.00
32131;BME280;18639;50.716;7.086;2024-02-16T02:17:40;99892.69;;;12.07;100.00
32131;BME280;18639;50.716;7.086;2024-02-16T02:20:07;99845.06;;;11.88;100.00
32131;BME280;18639;50.716;7.086;2024-02-16T02:22:36;99802.69;;;11.66;100.00
32131;BME280;18639;50.716;7.086;2024-02-16T02:25:02;99881.19;;;12.11;100.00
32131;BME280;18639;50.716;7.086;2024-02-16T02:27:27;99866.31;;;12.13;100.00
32131;BME280;18639;50.716;7.086;2024-02-16T02:29:53;99870.06;;;12.32;100.00
32131;BME280;18639;50.716;7.086;2024-02-16T02:32:18;99852.78;;;12.21;100.00
32131;BME280;18639;50.716;7.086;2024-02-16T02:34:44;99876.16;;;12.42;100.00
32131;BME280;18639;50.716;7.086;2024-02-16T02:37:09;99868.50;;;12.40;100.00
32131;BME280;18639;50.716;7.086;2024-02-16T02:39:35;99835.69;;;12.18;100.00
32131;BME280;18639;50.716;7.086;2024-02-16T02:42:00;99844.53;;;12.27;100.00
32131;BME280;18639;50.716;7.086;2024-02-16T02:44:25;99815.75;;;11.98;100.00
32131;BME280;18639;50.716;7.086;2024-02-16T02:46:51;99859.97;;;12.29;100.00
32131;BME280;18639;50.716;7.086;2024-02-16T02:49:17;99905.22;;;12.56;100.00
32131;BME280;18639;50.716;7.086;2024-02-16T02:51:42;99873.13;;;12.37;100.00
32131;BME280;18639;50.716;7.086;2024-02-16T02:54:08;99878.28;;;12.37;100.00
32131;BME280;18639;50.716;7.086;2024-02-16T02:56:33;99913.31;;;12.63;100.00
32131;BME280;18639;50.716;7.086;2024-02-16T02:58:58;99927.22;;;12.62;100.00
32131;BME280;18639;50.716;7.086;2024-02-16T03:01:24;99921.25;;;12.50;100.00
32131;BME280;18639;50.716;7.086;2024-02-16T03:03:49;99931.84;;;12.58;100.00
32131;BME280;18639;50.716;7.086;2024-02-16T03:06:19;99939.00;;;12.66;100.00
32131;BME280;18639;50.716;7.086;2024-02-16T03:08:44;99908.34;;;12.39;100.00
32131;BME280;18639;50.716;7.086;2024-02-16T03:11:10;99928.09;;;12.51;100.00
32131;BME280;18639;50.716;7.086;2024-02-16T03:13:36;99861.63;;;12.07;100.00
32131;BME280;18639;50.716;7.086;2024-02-16T03:16:01;99908.44;;;12.38;100.00
32131;BME280;18639;50.716;7.086;2024-02-16T03:18:30;99908.34;;;12.39;100.00
32131;BME280;18639;50.716;7.086;2024-02-16T03:20:56;99889.84;;;12.33;100.00
32131;BME280;18639;50.716;7.086;2024-02-16T03:23:22;99911.41;;;12.33;100.00
32131;BME280;18639;50.716;7.086;2024-02-16T03:25:48;99873.88;;;12.05;100.00
32131;BME280;18639;50.716;7.086;2024-02-16T03:28:13;99871.78;;;11.99;100.00
32131;BME280;18639;50.716;7.086;2024-02-16T03:30:39;99863.66;;;11.93;100.00
32131;BME280;18639;50.716;7.086;2024-02-16T03:33:04;99908.59;;;12.14;100.00
32131;BME280;18639;50.716;7.086;2024-02-16T03:35:30;99871.56;;;11.91;100.00
32131;BME280;18639;50.716;7.086;2024-02-16T03:37:55;99883.66;;;12.02;100.00
32131;BME280;18639;50.716;7.086;2024-02-16T03:40:22;99866.84;;;11.96;100.00
32131;BME280;18639;50.716;7.086;2024-02-16T03:42:48;99857.44;;;11.95;100.00
32131;BME280;18639;50.716;7.086;2024-02-16T03:45:13;99876.59;;;12.04;100.00
32131;BME280;18639;50.716;7.086;2024-02-16T03:47:40;99858.94;;;11.87;100.00
32131;BME280;18639;50.716;7.086;2024-02-16T03:50:06;99886.28;;;11.91;100.00
32131;BME280;18639;50.716;7.086;2024-02-16T03:52:32;99866.50;;;11.78;100.00
32131;BME280;18639;50.716;7.086;2024-02-16T03:54:57;99852.13;;;11.63;100.00
32131;BME280;18639;50.716;7.086;2024-02-16T03:57:22;99889.44;;;11.83;100.00
32131;BME280;18639;50.716;7.086;2024-02-16T03:59:48;99851.75;;;11.57;100.00
32131;BME280;18639;50.716;7.086;2024-02-16T04:02:13;99899.69;;;11.73;100.00
32131;BME280;18639;50.716;7.086;2024-02-16T04:04:39;99901.09;;;11.89;100.00
32131;BME280;18639;50.716;7.086;2024-02-16T04:07:04;99867.88;;;11.60;100.00
32131;BME280;18639;50.716;7.086;2024-02-16T04:09:32;99904.25;;;11.81;100.00
32131;BME280;18639;50.716;7.086;2024-02-16T04:11:57;99882.09;;;11.66;100.00
32131;BME280;18639;50.716;7.086;2024-02-16T04:14:22;99869.19;;;11.77;100.00
32131;BME280;18639;50.716;7.086;2024-02-16T04:16:48;99881.66;;;11.83;100.00
32131;BME280;18639;50.716;7.086;2024-02-16T04:19:13;99854.47;;;11.66;100.00
32131;BME280;18639;50.716;7.086;2024-02-16T04:21:38;99854.25;;;11.58;100.00
32131;BME280;18639;50.716;7.086;2024-02-16T04:24:04;99849.28;;;11.66;100.00
32131;BME280;18639;50.716;7.086;2024-02-16T04:26:29;99877.44;;;11.82;100.00
32131;BME280;18639;50.716;7.086;2024-02-16T04:28:54;99859.75;;;11.65;100.00
32131;BME280;18639;50.716;7.086;2024-02-16T04:31:20;99879.34;;;11.80;100.00
32131;BME280;18639;50.716;7.086;2024-02-16T04:33:45;99910.88;;;11.96;100.00
32131;BME280;18639;50.716;7.086;2024-02-16T04:36:10;99860.56;;;11.65;100.00
32131;BME280;18639;50.716;7.086;2024-02-16T04:38:36;99906.16;;;12.01;100.00
32131;BME280;18639;50.716;7.086;2024-02-16T04:41:01;99868.63;;;11.85;100.00
32131;BME280;18639;50.716;7.086;2024-02-16T04:43:26;99914.59;;;12.14;100.00
32131;BME280;18639;50.716;7.086;2024-02-16T04:45:51;99903.56;;;12.01;100.00
32131;BME280;18639;50.716;7.086;2024-02-16T04:48:17;99916.72;;;12.20;100.00
32131;BME280;18639;50.716;7.086;2024-02-16T04:50:42;99921.66;;;12.23;100.00
32131;BME280;18639;50.716;7.086;2024-02-16T04:53:07;99900.72;;;12.04;100.00
32131;BME280;18639;50.716;7.086;2024-02-16T04:55:33;99932.16;;;12.22;100.00
32131;BME280;18639;50.716;7.086;2024-02-16T04:57:59;99885.09;;;11.95;100.00
32131;BME280;18639;50.716;7.086;2024-02-16T05:00:24;99928.00;;;12.19;100.00
32131;BME280;18639;50.716;7.086;2024-02-16T05:02:50;99929.41;;;12.23;100.00
32131;BME280;18639;50.716;7.086;2024-02-16T05:05:16;99880.84;;;11.94;100.00
32131;BME280;18639;50.716;7.086;2024-02-16T05:07:42;99931.69;;;12.28;100.00
32131;BME280;18639;50.716;7.086;2024-02-16T05:10:09;99885.19;;;11.93;100.00
32131;BME280;18639;50.716;7.086;2024-02-16T05:12:34;99896.72;;;12.00;100.00
32131;BME280;18639;50.716;7.086;2024-02-16T05:14:59;99929.91;;;12.17;100.00
32131;BME280;18639;50.716;7.086;2024-02-16T05:17:25;99910.88;;;11.96;100.00
32131;BME280;18639;50.716;7.086;2024-02-16T05:19:50;99944.03;;;12.24;100.00
32131;BME280;18639;50.716;7.086;2024-02-16T05:22:15;99947.81;;;12.20;100.00
32131;BME280;18639;50.716;7.086;2024-02-16T05:24:43;99887.78;;;11.93;100.00
32131;BME280;18639;50.716;7.086;2024-02-16T05:27:08;99899.53;;;12.08;100.00
32131;BME280;18639;50.716;7.086;2024-02-16T05:29:35;99925.78;;;12.15;100.00
32131;BME280;18639;50.716;7.086;2024-02-16T05:32:01;99886.38;;;11.78;100.00
32131;BME280;18639;50.716;7.086;2024-02-16T05:34:26;99936.84;;;12.28;100.00
32131;BME280;18639;50.716;7.086;2024-02-16T05:36:51;99920.34;;;12.18;100.00
32131;BME280;18639;50.716;7.086;2024-02-16T05:39:17;99912.47;;;12.19;100.00
32131;BME280;18639;50.716;7.086;2024-02-16T05:41:46;99946.03;;;12.32;100.00
32131;BME280;18639;50.716;7.086;2024-02-16T05:44:12;99899.22;;;12.02;100.00
32131;BME280;18639;50.716;7.086;2024-02-16T05:46:38;99917.53;;;12.21;100.00
32131;BME280;18639;50.716;7.086;2024-02-16T05:49:04;99914.59;;;12.14;100.00
32131;BME280;18639;50.716;7.086;2024-02-16T05:51:36;99945.31;;;12.30;100.00
32131;BME280;18639;50.716;7.086;2024-02-16T05:54:03;99908.59;;;12.14;100.00
32131;BME280;18639;50.716;7.086;2024-02-16T05:56:28;99888.50;;;12.06;100.00
32131;BME280;18639;50.716;7.086;2024-02-16T05:58:54;99929.09;;;12.28;100.00
32131;BME280;18639;50.716;7.086;2024-02-16T06:01:19;99911.78;;;12.17;100.00
32131;BME280;18639;50.716;7.086;2024-02-16T06:03:45;99915.66;;;12.23;100.00
32131;BME280;18639;50.716;7.086;2024-02-16T06:06:10;99917.91;;;12.28;100.00
32131;BME280;18639;50.716;7.086;2024-02-16T06:08:35;99938.59;;;12.39;100.00
32131;BME280;18639;50.716;7.086;2024-02-16T06:11:00;99935.56;;;12.34;100.00
32131;BME280;18639;50.716;7.086;2024-02-16T06:13:27;99930.47;;;12.32;100.00
32131;BME280;18639;50.716;7.086;2024-02-16T06:15:53;99898.38;;;12.01;100.00
32131;BME280;18639;50.716;7.086;2024-02-16T06:18:18;99894.03;;;12.02;100.00
32131;BME280;18639;50.716;7.086;2024-02-16T06:20:44;99910.63;;;12.10;100.00
32131;BME280;18639;50.716;7.086;2024-02-16T06:23:10;99860.84;;;11.85;100.00
32131;BME280;18639;50.716;7.086;2024-02-16T06:25:36;99946.97;;;12.31;100.00
32131;BME280;18639;50.716;7.086;2024-02-16T06:28:02;99904.84;;;12.07;100.00
32131;BME280;18639;50.716;7.086;2024-02-16T06:30:28;99914.13;;;12.09;100.00
32131;BME280;18639;50.716;7.086;2024-02-16T06:32:53;99947.91;;;12.30;100.00
32131;BME280;18639;50.716;7.086;2024-02-16T06:35:20;99942.34;;;12.35;100.00
32131;BME280;18639;50.716;7.086;2024-02-16T06:37:45;99933.56;;;12.26;100.00
32131;BME280;18639;50.716;7.086;2024-02-16T06:40:11;99934.94;;;12.30;100.00
32131;BME280;18639;50.716;7.086;2024-02-16T06:42:37;99916.97;;;12.06;100.00
32131;BME280;18639;50.716;7.086;2024-02-16T06:45:03;99935.44;;;12.24;100.00
32131;BME280;18639;50.716;7.086;2024-02-16T06:47:30;99923.66;;;12.20;100.00
32131;BME280;18639;50.716;7.086;2024-02-16T06:49:55;99917.91;;;12.16;100.00
32131;BME280;18639;50.716;7.086;2024-02-16T06:52:21;99929.91;;;12.17;100.00
32131;BME280;18639;50.716;7.086;2024-02-16T06:54:46;99896.13;;;11.97;100.00
32131;BME280;18639;50.716;7.086;2024-02-16T06:57:12;99880.25;;;11.90;100.00
32131;BME280;18639;50.716;7.086;2024-02-16T06:59:37;99878.97;;;11.96;100.00
32131;BME280;18639;50.716;7.086;2024-02-16T07:02:02;99906.72;;;12.16;100.00
32131;BME280;18639;50.716;7.086;2024-02-16T07:04:28;99922.84;;;12.19;100.00
32131;BME280;18639;50.716;7.086;2024-02-16T07:06:53;99923.78;;;12.18;100.00
32131;BME280;18639;50.716;7.086;2024-02-16T07:09:19;99954.16;;;12.39;100.00
32131;BME280;18639;50.716;7.086;2024-02-16T07:11:45;99937.19;;;12.35;100.00
32131;BME280;18639;50.716;7.086;2024-02-16T07:14:12;99960.75;;;12.43;100.00
32131;BME280;18639;50.716;7.086;2024-02-16T07:16:38;99938.94;;;12.34;100.00
32131;BME280;18639;50.716;7.086;2024-02-16T07:19:03;99906.16;;;12.12;100.00
32131;BME280;18639;50.716;7.086;2024-02-16T07:21:30;99980.53;;;12.55;100.00
32131;BME280;18639;50.716;7.086;2024-02-16T07:23:55;99962.41;;;12.44;100.00
32131;BME280;18639;50.716;7.086;2024-02-16T07:26:20;99929.91;;;12.17;100.00
32131;BME280;18639;50.716;7.086;2024-02-16T07:28:46;100000.75;;;12.61;100.00
32131;BME280;18639;50.716;7.086;2024-02-16T07:31:11;99930.84;;;12.28;100.00
32131;BME280;18639;50.716;7.086;2024-02-16T07:33:36;99958.63;;;12.37;100.00
32131;BME280;18639;50.716;7.086;2024-02-16T07:36:02;99977.69;;;12.47;100.00
32131;BME280;18639;50.716;7.086;2024-02-16T07:38:28;100008.97;;;12.66;100.00
32131;BME280;18639;50.716;7.086;2024-02-16T07:40:55;100018.41;;;12.67;100.00
32131;BME280;18639;50.716;7.086;2024-02-16T07:43:20;100009.50;;;12.60;100.00
32131;BME280;18639;50.716;7.086;2024-02-16T07:45:49;100022.66;;;12.68;100.00
32131;BME280;18639;50.716;7.086;2024-02-16T07:48:15;100038.00;;;12.71;100.00
32131;BME280;18639;50.716;7.086;2024-02-16T07:50:40;99993.13;;;12.37;100.00
32131;BME280;18639;50.716;7.086;2024-02-16T07:53:06;100032.09;;;12.69;100.00
32131;BME280;18639;50.716;7.086;2024-02-16T07:55:32;100002.56;;;12.49;100.00
32131;BME280;18639;50.716;7.086;2024-02-16T07:57:57;99988.06;;;12.47;100.00
32131;BME280;18639;50.716;7.086;2024-02-16T08:00:23;99980.41;;;12.34;100.00
32131;BME280;18639;50.716;7.086;2024-02-16T08:02:48;100032.44;;;12.76;100.00
32131;BME280;18639;50.716;7.086;2024-02-16T08:05:13;100038.91;;;12.81;100.00
32131;BME280;18639;50.716;7.086;2024-02-16T08:07:40;100042.19;;;12.83;100.00
32131;BME280;18639;50.716;7.086;2024-02-16T08:10:09;100032.31;;;12.77;100.00
32131;BME280;18639;50.716;7.086;2024-02-16T08:12:35;99971.09;;;12.43;100.00
32131;BME280;18639;50.716;7.086;2024-02-16T08:15:05;99979.81;;;12.42;100.00
32131;BME280;18639;50.716;7.086;2024-02-16T08:17:33;100031.00;;;12.83;100.00
32131;BME280;18639;50.716;7.086;2024-02-16T08:19:59;99982.75;;;12.59;100.00
32131;BME280;18639;50.716;7.086;2024-02-16T08:22:24;100020.53;;;12.73;100.00
32131;BME280;18639;50.716;7.086;2024-02-16T08:24:49;100055.41;;;12.91;100.00
32131;BME280;18639;50.716;7.086;2024-02-16T08:27:15;100017.25;;;12.71;100.00
32131;BME280;18639;50.716;7.086;2024-02-16T08:29:41;100016.91;;;12.64;100.00
32131;BME280;18639;50.716;7.086;2024-02-16T08:32:07;100041.75;;;12.78;100.00
32131;BME280;18639;50.716;7.086;2024-02-16T08:34:34;100051.97;;;12.91;100.00
32131;BME280;18639;50.716;7.086;2024-02-16T08:37:03;100034.88;;;12.88;100.00
32131;BME280;18639;50.716;7.086;2024-02-16T08:39:29;100063.47;;;13.09;100.00
32131;BME280;18639;50.716;7.086;2024-02-16T08:41:55;100026.16;;;12.89;100.00
32131;BME280;18639;50.716;7.086;2024-02-16T08:44:20;100079.88;;;13.21;100.00
32131;BME280;18639;50.716;7.086;2024-02-16T08:46:45;100026.41;;;12.86;100.00
32131;BME280;18639;50.716;7.086;2024-02-16T08:49:14;100067.88;;;13.08;100.00
32131;BME280;18639;50.716;7.086;2024-02-16T08:51:39;100084.59;;;13.16;100.00
32131;BME280;18639;50.716;7.086;2024-02-16T08:54:04;100029.03;;;12.75;100.00
32131;BME280;18639;50.716;7.086;2024-02-16T08:56:30;100001.91;;;12.68;100.00
32131;BME280;18639;50.716;7.086;2024-02-16T08:58:56;100025.25;;;12.79;100.00
32131;BME280;18639;50.716;7.086;2024-02-16T09:01:32;100054.00;;;12.87;100.00
32131;BME280;18639;50.716;7.086;2024-02-16T09:03:57;100097.56;;;13.04;100.00
32131;BME280;18639;50.716;7.086;2024-02-16T09:06:23;100108.19;;;13.01;100.00
32131;BME280;18639;50.716;7.086;2024-02-16T09:08:48;100066.25;;;12.85;100.00
32131;BME280;18639;50.716;7.086;2024-02-16T09:11:13;100102.53;;;13.07;100.00
32131;BME280;18639;50.716;7.086;2024-02-16T09:13:40;100101.94;;;13.15;100.00
32131;BME280;18639;50.716;7.086;2024-02-16T09:16:06;100080.34;;;13.03;100.00
32131;BME280;18639;50.716;7.086;2024-02-16T09:18:32;100059.97;;;12.88;100.00
32131;BME280;18639;50.716;7.086;2024-02-16T09:20:57;100034.78;;;12.79;100.00
32131;BME280;18639;50.716;7.086;2024-02-16T09:23:23;100029.72;;;12.77;100.00
32131;BME280;18639;50.716;7.086;2024-02-16T09:25:48;100098.53;;;13.15;100.00
32131;BME280;18639;50.716;7.086;2024-02-16T09:28:15;100053.75;;;12.90;100.00
32131;BME280;18639;50.716;7.086;2024-02-16T09:30:41;100036.91;;;12.85;100.00
32131;BME280;18639;50.716;7.086;2024-02-16T09:33:06;100094.16;;;13.04;100.00
32131;BME280;18639;50.716;7.086;2024-02-16T09:35:32;100100.44;;;13.13;100.00
32131;BME280;18639;50.716;7.086;2024-02-16T09:37:58;100051.88;;;12.81;100.00
32131;BME280;18639;50.716;7.086;2024-02-16T09:40:23;100058.34;;;12.87;100.00
32131;BME280;18639;50.716;7.086;2024-02-16T09:42:49;100108.91;;;13.15;100.00
32131;BME280;18639;50.716;7.086;2024-02-16T09:45:15;100116.19;;;13.32;100.00
32131;BME280;18639;50.716;7.086;2024-02-16T09:47:42;100117.63;;;13.25;100.00
32131;BME280;18639;50.716;7.086;2024-02-16T09:50:09;100093.47;;;13.13;100.00
32131;BME280;18639;50.716;7.086;2024-02-16T09:52:35;100123.38;;;13.39;100.00
32131;BME280;18639;50.716;7.086;2024-02-16T09:55:01;100133.84;;;13.49;100.00
32131;BME280;18639;50.716;7.086;2024-02-16T09:57:26;100140.19;;;13.56;100.00
32131;BME280;18639;50.716;7.086;2024-02-16T09:59:51;100145.63;;;13.53;100.00
32131;BME280;18639;50.716;7.086;2024-02-16T10:02:17;100131.13;;;13.51;100.00
32131;BME280;18639;50.716;7.086;2024-02-16T10:04:42;100127.25;;;13.45;100.00
32131;BME280;18639;50.716;7.086;2024-02-16T10:07:07;100136.31;;;13.51;100.00
32131;BME280;18639;50.716;7.086;2024-02-16T10:09:33;100142.06;;;13.54;100.00
32131;BME280;18639;50.716;7.086;2024-02-16T10:11:58;100143.72;;;13.55;100.00
32131;BME280;18639;50.716;7.086;2024-02-16T10:14:24;100128.91;;;13.46;100.00
32131;BME280;18639;50.716;7.086;2024-02-16T10:17:04;100159.75;;;13.60;100.00
32131;BME280;18639;50.716;7.086;2024-02-16T10:19:31;100134.56;;;13.40;100.00
32131;BME280;18639;50.716;7.086;2024-02-16T10:22:09;100143.03;;;13.42;100.00
32131;BME280;18639;50.716;7.086;2024-02-16T10:24:35;100149.06;;;13.42;100.00
32131;BME280;18639;50.716;7.086;2024-02-16T10:27:04;100120.44;;;13.22;100.00
32131;BME280;18639;50.716;7.086;2024-02-16T10:29:30;100164.53;;;13.44;100.00
32131;BME280;18639;50.716;7.086;2024-02-16T10:31:57;100171.94;;;13.48;100.00
32131;BME280;18639;50.716;7.086;2024-02-16T10:34:24;100169.00;;;13.42;100.00
32131;BME280;18639;50.716;7.086;2024-02-16T10:36:49;100169.47;;;13.36;100.00
32131;BME280;18639;50.716;7.086;2024-02-16T10:39:16;100176.22;;;13.38;100.00
32131;BME280;18639;50.716;7.086;2024-02-16T10:41:44;100204.28;;;13.44;100.00
32131;BME280;18639;50.716;7.086;2024-02-16T10:44:09;100209.22;;;13.47;100.00
32131;BME280;18639;50.716;7.086;2024-02-16T10:46:35;100195.91;;;13.41;100.00
32131;BME280;18639;50.716;7.086;2024-02-16T10:49:01;100134.63;;;12.95;100.00
32131;BME280;18639;50.716;7.086;2024-02-16T10:51:40;100158.19;;;13.15;100.00
32131;BME280;18639;50.716;7.086;2024-02-16T10:54:06;100193.91;;;13.44;100.00
32131;BME280;18639;50.716;7.086;2024-02-16T10:56:37;100167.72;;;13.36;100.00
32131;BME280;18639;50.716;7.086;2024-02-16T10:59:04;100178.44;;;13.43;100.00
32131;BME280;18639;50.716;7.086;2024-02-16T11:01:32;100170.19;;;13.38;100.00
32131;BME280;18639;50.716;7.086;2024-02-16T11:04:04;100170.91;;;13.40;100.00
32131;BME280;18639;50.716;7.086;2024-02-16T11:06:29;100178.53;;;13.53;100.00
32131;BME280;18639;50.716;7.086;2024-02-16T11:09:01;100186.09;;;13.56;100.00
32131;BME280;18639;50.716;7.086;2024-02-16T11:11:29;100171.00;;;13.49;100.00
32131;BME280;18639;50.716;7.086;2024-02-16T11:13:55;100145.31;;;13.35;100.00
32131;BME280;18639;50.716;7.086;2024-02-16T11:16:21;100167.69;;;13.47;100.00
32131;BME280;18639;50.716;7.086;2024-02-16T11:18:47;100162.75;;;13.44;100.00
32131;BME280;18639;50.716;7.086;2024-02-16T11:21:17;100173.03;;;13.46;100.00
32131;BME280;18639;50.716;7.086;2024-02-16T11:23:42;100166.19;;;13.45;100.00
32131;BME280;18639;50.716;7.086;2024-02-16T11:26:12;100180.91;;;13.56;100.00
32131;BME280;18639;50.716;7.086;2024-02-16T11:28:40;100132.38;;;13.24;100.00
32131;BME280;18639;50.716;7.086;2024-02-16T11:31:06;100185.97;;;13.57;100.00
32131;BME280;18639;50.716;7.086;2024-02-16T11:33:35;100175.34;;;13.60;100.00
32131;BME280;18639;50.716;7.086;2024-02-16T11:36:02;100183.13;;;13.60;100.00
32131;BME280;18639;50.716;7.086;2024-02-16T11:38:31;100165.00;;;13.49;100.00
32131;BME280;18639;50.716;7.086;2024-02-16T11:41:03;100186.41;;;13.62;100.00
32131;BME280;18639;50.716;7.086;2024-02-16T11:43:30;100147.78;;;13.37;100.00
32131;BME280;18639;50.716;7.086;2024-02-16T11:45:55;100192.22;;;13.66;100.00
32131;BME280;18639;50.716;7.086;2024-02-16T11:48:25;100187.59;;;13.69;100.00
32131;BME280;18639;50.716;7.086;2024-02-16T11:51:03;100130.44;;;13.37;100.00
32131;BME280;18639;50.716;7.086;2024-02-16T11:53:29;100176.84;;;13.63;100.00
32131;BME280;18639;50.716;7.086;2024-02-16T11:55:55;100195.34;;;13.80;100.00
32131;BME280;18639;50.716;7.086;2024-02-16T11:58:20;100202.66;;;13.86;100.00
32131;BME280;18639;50.716;7.086;2024-02-16T12:00:46;100157.28;;;13.59;100.00
32131;BME280;18639;50.716;7.086;2024-02-16T12:03:22;100206.03;;;13.98;100.00
32131;BME280;18639;50.716;7.086;2024-02-16T12:05:52;100171.97;;;13.80;100.00
32131;BME280;18639;50.716;7.086;2024-02-16T12:08:18;100196.25;;;13.90;100.00
32131;BME280;18639;50.716;7.086;2024-02-16T12:10:44;100207.59;;;13.89;100.00
32131;BME280;18639;50.716;7.086;2024-02-16T12:13:10;100216.53;;;13.97;100.00
32131;BME280;18639;50.716;7.086;2024-02-16T12:15:38;100191.34;;;13.76;100.00
32131;BME280;18639;50.716;7.086;2024-02-16T12:18:03;100166.16;;;13.56;100.00
32131;BME280;18639;50.716;7.086;2024-02-16T12:20:30;100235.56;;;13.97;100.00
32131;BME280;18639;50.716;7.086;2024-02-16T12:22:56;100203.16;;;13.69;100.00
32131;BME280;18639;50.716;7.086;2024-02-16T12:25:24;100191.38;;;13.65;100.00
32131;BME280;18639;50.716;7.086;2024-02-16T12:27:49;100166.88;;;13.47;100.00
32131;BME280;18639;50.716;7.086;2024-02-16T12:30:15;100173.22;;;13.54;100.00
32131;BME280;18639;50.716;7.086;2024-02-16T12:32:41;100247.72;;;13.97;100.00
32131;BME280;18639;50.716;7.086;2024-02-16T12:35:06;100193.25;;;13.63;100.00
32131;BME280;18639;50.716;7.086;2024-02-16T12:37:34;100188.91;;;13.53;100.00
32131;BME280;18639;50.716;7.086;2024-02-16T12:40:00;100193.25;;;13.63;100.00